TAF Text Data
IDs:
Format:
Raw Decoded Include METAR

Data at: 1504 UTC 27 Nov 2021

KBOS 271422Z 2714/2818 28017G26KT P6SM SCT035
  FM280300 27012G20KT P6SM FEW035
  FM280500 27010KT P6SM SKC
  FM281500 26009KT P6SM BKN100